sensor_id;sensor_type;location;lat;lon;timestamp;temperature;humidity
429;DHT22;201;48.758;9.290;2023-04-15T00:01:11;5.70;1.00
429;DHT22;201;48.758;9.290;2023-04-15T00:03:43;5.60;1.00
429;DHT22;201;48.758;9.290;2023-04-15T00:06:08;5.60;1.00
429;DHT22;201;48.758;9.290;2023-04-15T00:08:34;5.50;1.00
429;DHT22;201;48.758;9.290;2023-04-15T00:10:59;5.50;1.00
429;DHT22;201;48.758;9.290;2023-04-15T00:13:27;5.40;1.00
429;DHT22;201;48.758;9.290;2023-04-15T00:15:52;5.40;1.00
429;DHT22;201;48.758;9.290;2023-04-15T00:18:18;5.40;1.00
429;DHT22;201;48.758;9.290;2023-04-15T00:20:43;5.40;1.00
429;DHT22;201;48.758;9.290;2023-04-15T00:23:09;5.30;1.00
429;DHT22;201;48.758;9.290;2023-04-15T00:25:34;5.30;1.00
429;DHT22;201;48.758;9.290;2023-04-15T00:28:00;5.30;1.00
429;DHT22;201;48.758;9.290;2023-04-15T00:30:25;5.20;1.00
429;DHT22;201;48.758;9.290;2023-04-15T00:32:51;5.20;1.00
429;DHT22;201;48.758;9.290;2023-04-15T00:35:17;5.10;1.00
429;DHT22;201;48.758;9.290;2023-04-15T00:37:42;5.20;1.00
429;DHT22;201;48.758;9.290;2023-04-15T00:40:11;5.20;1.00
429;DHT22;201;48.758;9.290;2023-04-15T00:42:38;5.10;1.00
429;DHT22;201;48.758;9.290;2023-04-15T00:45:04;5.10;1.10
429;DHT22;201;48.758;9.290;2023-04-15T00:47:30;5.10;1.00
429;DHT22;201;48.758;9.290;2023-04-15T00:49:57;5.10;1.00
429;DHT22;201;48.758;9.290;2023-04-15T00:52:23;5.00;1.00
429;DHT22;201;48.758;9.290;2023-04-15T00:54:48;5.00;1.00
429;DHT22;201;48.758;9.290;2023-04-15T00:57:15;4.90;1.10
429;DHT22;201;48.758;9.290;2023-04-15T00:59:41;4.90;1.20
429;DHT22;201;48.758;9.290;2023-04-15T01:02:07;4.90;1.30
429;DHT22;201;48.758;9.290;2023-04-15T01:04:32;4.90;1.50
429;DHT22;201;48.758;9.290;2023-04-15T01:06:58;4.90;1.60
429;DHT22;201;48.758;9.290;2023-04-15T01:09:24;4.90;1.60
429;DHT22;201;48.758;9.290;2023-04-15T01:11:49;4.80;1.60
429;DHT22;201;48.758;9.290;2023-04-15T01:14:15;4.80;1.90
429;DHT22;201;48.758;9.290;2023-04-15T01:16:40;4.70;2.30
429;DHT22;201;48.758;9.290;2023-04-15T01:19:08;4.70;2.30
429;DHT22;201;48.758;9.290;2023-04-15T01:21:38;4.70;2.30
429;DHT22;201;48.758;9.290;2023-04-15T01:24:08;4.70;2.30
429;DHT22;201;48.758;9.290;2023-04-15T01:26:36;4.60;2.20
429;DHT22;201;48.758;9.290;2023-04-15T01:29:02;4.50;2.60
429;DHT22;201;48.758;9.290;2023-04-15T01:31:28;4.40;3.10
429;DHT22;201;48.758;9.290;2023-04-15T01:33:53;4.30;3.80
429;DHT22;201;48.758;9.290;2023-04-15T01:36:19;4.20;4.50
429;DHT22;201;48.758;9.290;2023-04-15T01:38:44;4.00;5.70
429;DHT22;201;48.758;9.290;2023-04-15T01:41:10;4.00;6.20
429;DHT22;201;48.758;9.290;2023-04-15T01:43:37;3.90;6.10
429;DHT22;201;48.758;9.290;2023-04-15T01:46:03;3.80;6.00
429;DHT22;201;48.758;9.290;2023-04-15T01:48:28;3.70;6.20
429;DHT22;201;48.758;9.290;2023-04-15T01:50:54;3.70;6.00
429;DHT22;201;48.758;9.290;2023-04-15T01:53:21;3.60;5.90
429;DHT22;201;48.758;9.290;2023-04-15T01:55:47;3.60;5.90
429;DHT22;201;48.758;9.290;2023-04-15T01:58:13;3.60;5.90
429;DHT22;201;48.758;9.290;2023-04-15T02:00:39;3.60;5.90
429;DHT22;201;48.758;9.290;2023-04-15T02:03:04;3.60;5.90
429;DHT22;201;48.758;9.290;2023-04-15T02:05:30;3.60;6.20
429;DHT22;201;48.758;9.290;2023-04-15T02:07:56;3.60;6.70
429;DHT22;201;48.758;9.290;2023-04-15T02:10:22;3.60;7.00
429;DHT22;201;48.758;9.290;2023-04-15T02:12:47;3.50;7.00
429;DHT22;201;48.758;9.290;2023-04-15T02:15:13;3.50;7.30
429;DHT22;201;48.758;9.290;2023-04-15T02:17:39;3.50;7.40
429;DHT22;201;48.758;9.290;2023-04-15T02:20:05;3.50;7.50
429;DHT22;201;48.758;9.290;2023-04-15T02:22:31;3.50;7.60
429;DHT22;201;48.758;9.290;2023-04-15T02:24:56;3.50;7.50
429;DHT22;201;48.758;9.290;2023-04-15T02:27:22;3.50;7.50
429;DHT22;201;48.758;9.290;2023-04-15T02:29:47;3.50;7.50
429;DHT22;201;48.758;9.290;2023-04-15T02:32:15;3.40;7.40
429;DHT22;201;48.758;9.290;2023-04-15T02:34:41;3.40;7.60
429;DHT22;201;48.758;9.290;2023-04-15T02:37:11;3.40;7.60
429;DHT22;201;48.758;9.290;2023-04-15T02:39:37;3.40;7.60
429;DHT22;201;48.758;9.290;2023-04-15T02:42:03;3.40;7.60
429;DHT22;201;48.758;9.290;2023-04-15T02:44:30;3.50;7.60
429;DHT22;201;48.758;9.290;2023-04-15T02:46:57;3.40;7.40
429;DHT22;201;48.758;9.290;2023-04-15T02:49:23;3.40;7.40
429;DHT22;201;48.758;9.290;2023-04-15T02:51:49;3.40;7.10
429;DHT22;201;48.758;9.290;2023-04-15T02:54:19;3.40;7.00
429;DHT22;201;48.758;9.290;2023-04-15T02:56:45;3.40;7.00
429;DHT22;201;48.758;9.290;2023-04-15T02:59:11;3.40;7.20
429;DHT22;201;48.758;9.290;2023-04-15T03:01:37;3.40;7.20
429;DHT22;201;48.758;9.290;2023-04-15T03:04:03;3.50;7.30
429;DHT22;201;48.758;9.290;2023-04-15T03:06:28;3.50;7.40
429;DHT22;201;48.758;9.290;2023-04-15T03:08:54;3.60;7.20
429;DHT22;201;48.758;9.290;2023-04-15T03:11:21;3.60;7.00
429;DHT22;201;48.758;9.290;2023-04-15T03:13:47;3.50;6.90
429;DHT22;201;48.758;9.290;2023-04-15T03:16:12;3.60;6.90
429;DHT22;201;48.758;9.290;2023-04-15T03:18:38;3.60;6.70
429;DHT22;201;48.758;9.290;2023-04-15T03:21:03;3.70;6.50
429;DHT22;201;48.758;9.290;2023-04-15T03:23:30;3.80;6.00
429;DHT22;201;48.758;9.290;2023-04-15T03:25:56;3.80;6.10
429;DHT22;201;48.758;9.290;2023-04-15T03:28:23;3.80;6.00
429;DHT22;201;48.758;9.290;2023-04-15T03:30:48;3.80;5.20
429;DHT22;201;48.758;9.290;2023-04-15T03:33:14;3.80;5.20
429;DHT22;201;48.758;9.290;2023-04-15T03:35:39;3.80;5.20
429;DHT22;201;48.758;9.290;2023-04-15T03:38:05;3.80;5.20
429;DHT22;201;48.758;9.290;2023-04-15T03:40:30;3.80;5.30
429;DHT22;201;48.758;9.290;2023-04-15T03:42:56;3.70;5.40
429;DHT22;201;48.758;9.290;2023-04-15T03:45:21;3.60;5.60
429;DHT22;201;48.758;9.290;2023-04-15T03:47:47;3.50;5.80
429;DHT22;201;48.758;9.290;2023-04-15T03:50:13;3.40;5.80
429;DHT22;201;48.758;9.290;2023-04-15T03:52:39;3.40;5.80
429;DHT22;201;48.758;9.290;2023-04-15T03:55:05;3.30;5.70
429;DHT22;201;48.758;9.290;2023-04-15T03:57:30;3.20;6.60
429;DHT22;201;48.758;9.290;2023-04-15T03:59:56;3.10;7.10
429;DHT22;201;48.758;9.290;2023-04-15T04:02:21;2.90;8.00
429;DHT22;201;48.758;9.290;2023-04-15T04:04:47;2.90;8.50
429;DHT22;201;48.758;9.290;2023-04-15T04:07:16;2.80;9.00
429;DHT22;201;48.758;9.290;2023-04-15T04:09:41;2.70;9.40
429;DHT22;201;48.758;9.290;2023-04-15T04:12:07;2.70;9.60
429;DHT22;201;48.758;9.290;2023-04-15T04:14:33;2.70;9.50
429;DHT22;201;48.758;9.290;2023-04-15T04:16:58;2.70;9.50
429;DHT22;201;48.758;9.290;2023-04-15T04:19:24;2.60;9.20
429;DHT22;201;48.758;9.290;2023-04-15T04:21:50;2.60;9.30
429;DHT22;201;48.758;9.290;2023-04-15T04:24:15;2.60;9.20
429;DHT22;201;48.758;9.290;2023-04-15T04:26:41;2.60;9.10
429;DHT22;201;48.758;9.290;2023-04-15T04:29:06;2.60;9.00
429;DHT22;201;48.758;9.290;2023-04-15T04:31:32;2.60;8.90
429;DHT22;201;48.758;9.290;2023-04-15T04:33:57;2.60;8.70
429;DHT22;201;48.758;9.290;2023-04-15T04:36:23;2.60;8.60
429;DHT22;201;48.758;9.290;2023-04-15T04:38:48;2.60;8.60
429;DHT22;201;48.758;9.290;2023-04-15T04:41:14;2.60;8.50
429;DHT22;201;48.758;9.290;2023-04-15T04:43:39;2.60;8.40
429;DHT22;201;48.758;9.290;2023-04-15T04:46:05;2.60;8.30
429;DHT22;201;48.758;9.290;2023-04-15T04:48:31;2.50;8.30
429;DHT22;201;48.758;9.290;2023-04-15T04:50:56;2.50;8.50
429;DHT22;201;48.758;9.290;2023-04-15T04:53:22;2.50;8.50
429;DHT22;201;48.758;9.290;2023-04-15T04:55:47;2.40;8.70
429;DHT22;201;48.758;9.290;2023-04-15T04:58:13;2.40;9.10
429;DHT22;201;48.758;9.290;2023-04-15T05:00:39;2.40;9.40
429;DHT22;201;48.758;9.290;2023-04-15T05:03:04;2.30;9.30
429;DHT22;201;48.758;9.290;2023-04-15T05:05:30;2.30;9.60
429;DHT22;201;48.758;9.290;2023-04-15T05:07:56;2.20;9.70
429;DHT22;201;48.758;9.290;2023-04-15T05:10:21;2.20;9.80
429;DHT22;201;48.758;9.290;2023-04-15T05:12:47;2.20;9.80
429;DHT22;201;48.758;9.290;2023-04-15T05:15:12;2.20;9.60
429;DHT22;201;48.758;9.290;2023-04-15T05:17:38;2.20;9.30
429;DHT22;201;48.758;9.290;2023-04-15T05:20:04;2.20;9.30
429;DHT22;201;48.758;9.290;2023-04-15T05:22:29;2.30;9.10
429;DHT22;201;48.758;9.290;2023-04-15T05:24:55;2.30;8.60
429;DHT22;201;48.758;9.290;2023-04-15T05:27:20;2.30;8.30
429;DHT22;201;48.758;9.290;2023-04-15T05:29:47;2.40;8.00
429;DHT22;201;48.758;9.290;2023-04-15T05:32:13;2.40;7.70
429;DHT22;201;48.758;9.290;2023-04-15T05:34:38;2.40;7.50
429;DHT22;201;48.758;9.290;2023-04-15T05:37:04;2.40;7.70
429;DHT22;201;48.758;9.290;2023-04-15T05:39:29;2.50;7.50
429;DHT22;201;48.758;9.290;2023-04-15T05:41:57;2.50;7.30
429;DHT22;201;48.758;9.290;2023-04-15T05:44:22;2.60;7.10
429;DHT22;201;48.758;9.290;2023-04-15T05:46:48;2.90;6.80
429;DHT22;201;48.758;9.290;2023-04-15T05:49:13;3.10;5.50
429;DHT22;201;48.758;9.290;2023-04-15T05:51:39;3.30;4.90
429;DHT22;201;48.758;9.290;2023-04-15T05:54:04;3.70;3.70
429;DHT22;201;48.758;9.290;2023-04-15T05:56:31;4.10;2.30
429;DHT22;201;48.758;9.290;2023-04-15T05:58:56;4.50;1.00
429;DHT22;201;48.758;9.290;2023-04-15T06:01:22;5.00;1.00
429;DHT22;201;48.758;9.290;2023-04-15T06:03:47;5.30;1.00
429;DHT22;201;48.758;9.290;2023-04-15T06:06:13;5.90;1.00
429;DHT22;201;48.758;9.290;2023-04-15T06:08:40;6.60;1.00
429;DHT22;201;48.758;9.290;2023-04-15T06:11:05;7.40;1.00
429;DHT22;201;48.758;9.290;2023-04-15T06:13:31;8.30;1.00
429;DHT22;201;48.758;9.290;2023-04-15T06:15:57;9.30;1.00
429;DHT22;201;48.758;9.290;2023-04-15T06:18:22;10.10;1.00
429;DHT22;201;48.758;9.290;2023-04-15T06:20:48;10.90;1.00
429;DHT22;201;48.758;9.290;2023-04-15T06:23:13;11.30;1.00
429;DHT22;201;48.758;9.290;2023-04-15T06:25:39;11.90;1.00
429;DHT22;201;48.758;9.290;2023-04-15T06:28:04;12.80;1.00
429;DHT22;201;48.758;9.290;2023-04-15T06:30:30;12.80;1.00
429;DHT22;201;48.758;9.290;2023-04-15T06:32:56;12.60;1.00
429;DHT22;201;48.758;9.290;2023-04-15T06:35:22;12.60;1.00
429;DHT22;201;48.758;9.290;2023-04-15T06:37:47;12.90;1.00
429;DHT22;201;48.758;9.290;2023-04-15T06:40:13;14.00;1.00
429;DHT22;201;48.758;9.290;2023-04-15T06:42:38;15.10;1.00
429;DHT22;201;48.758;9.290;2023-04-15T06:45:04;15.70;1.00
429;DHT22;201;48.758;9.290;2023-04-15T06:47:31;16.10;1.00
429;DHT22;201;48.758;9.290;2023-04-15T06:49:56;16.90;1.00
429;DHT22;201;48.758;9.290;2023-04-15T06:52:22;17.80;1.00
429;DHT22;201;48.758;9.290;2023-04-15T06:54:47;17.80;1.00
429;DHT22;201;48.758;9.290;2023-04-15T06:57:13;18.10;1.00
429;DHT22;201;48.758;9.290;2023-04-15T06:59:38;16.70;1.00
429;DHT22;201;48.758;9.290;2023-04-15T07:02:04;15.50;1.00
429;DHT22;201;48.758;9.290;2023-04-15T07:04:29;14.40;1.00
429;DHT22;201;48.758;9.290;2023-04-15T07:06:55;13.80;1.00
429;DHT22;201;48.758;9.290;2023-04-15T07:09:22;12.90;1.00
429;DHT22;201;48.758;9.290;2023-04-15T07:11:48;12.30;1.00
429;DHT22;201;48.758;9.290;2023-04-15T07:14:13;11.70;1.00
429;DHT22;201;48.758;9.290;2023-04-15T07:16:39;11.20;1.00
429;DHT22;201;48.758;9.290;2023-04-15T07:19:04;10.40;1.00
429;DHT22;201;48.758;9.290;2023-04-15T07:21:30;9.70;1.00
429;DHT22;201;48.758;9.290;2023-04-15T07:23:56;9.60;1.00
429;DHT22;201;48.758;9.290;2023-04-15T07:26:23;9.40;1.00
429;DHT22;201;48.758;9.290;2023-04-15T07:28:48;9.20;1.00
429;DHT22;201;48.758;9.290;2023-04-15T07:31:14;8.90;1.00
429;DHT22;201;48.758;9.290;2023-04-15T07:33:41;8.90;1.00
429;DHT22;201;48.758;9.290;2023-04-15T07:36:06;9.00;1.00
429;DHT22;201;48.758;9.290;2023-04-15T07:38:32;9.60;1.00
429;DHT22;201;48.758;9.290;2023-04-15T07:40:58;10.40;1.00
429;DHT22;201;48.758;9.290;2023-04-15T07:43:23;11.30;1.00
429;DHT22;201;48.758;9.290;2023-04-15T07:45:49;12.50;1.00
429;DHT22;201;48.758;9.290;2023-04-15T07:48:14;13.90;1.00
429;DHT22;201;48.758;9.290;2023-04-15T07:50:40;15.20;1.00
429;DHT22;201;48.758;9.290;2023-04-15T07:53:06;15.90;1.00
429;DHT22;201;48.758;9.290;2023-04-15T07:55:31;17.10;1.00
429;DHT22;201;48.758;9.290;2023-04-15T07:57:57;17.70;1.00
429;DHT22;201;48.758;9.290;2023-04-15T08:00:22;18.80;1.00
429;DHT22;201;48.758;9.290;2023-04-15T08:02:48;20.30;1.00
429;DHT22;201;48.758;9.290;2023-04-15T08:05:14;21.70;1.00
429;DHT22;201;48.758;9.290;2023-04-15T08:07:40;23.60;1.00
429;DHT22;201;48.758;9.290;2023-04-15T08:10:06;24.50;1.00
429;DHT22;201;48.758;9.290;2023-04-15T08:12:31;25.70;1.00
429;DHT22;201;48.758;9.290;2023-04-15T08:14:57;26.80;1.00
429;DHT22;201;48.758;9.290;2023-04-15T08:17:23;27.60;1.00
429;DHT22;201;48.758;9.290;2023-04-15T08:19:49;28.30;1.00
429;DHT22;201;48.758;9.290;2023-04-15T08:22:14;29.00;1.00
429;DHT22;201;48.758;9.290;2023-04-15T08:24:40;28.90;1.00
429;DHT22;201;48.758;9.290;2023-04-15T08:27:05;27.40;1.00
429;DHT22;201;48.758;9.290;2023-04-15T08:29:32;28.20;1.00
429;DHT22;201;48.758;9.290;2023-04-15T08:31:59;28.70;1.00
429;DHT22;201;48.758;9.290;2023-04-15T08:34:25;29.90;1.00
429;DHT22;201;48.758;9.290;2023-04-15T08:36:50;30.50;1.00
429;DHT22;201;48.758;9.290;2023-04-15T08:39:16;31.10;1.00
429;DHT22;201;48.758;9.290;2023-04-15T08:41:55;31.90;1.00
429;DHT22;201;48.758;9.290;2023-04-15T08:44:23;30.60;1.00
429;DHT22;201;48.758;9.290;2023-04-15T08:46:51;29.10;1.00
429;DHT22;201;48.758;9.290;2023-04-15T08:49:18;30.40;1.00
429;DHT22;201;48.758;9.290;2023-04-15T08:51:45;31.30;1.00
429;DHT22;201;48.758;9.290;2023-04-15T08:54:11;33.10;1.00
429;DHT22;201;48.758;9.290;2023-04-15T08:56:38;34.10;1.00
429;DHT22;201;48.758;9.290;2023-04-15T08:59:03;34.70;1.00
429;DHT22;201;48.758;9.290;2023-04-15T09:01:31;34.90;1.00
429;DHT22;201;48.758;9.290;2023-04-15T09:03:58;35.30;1.00
429;DHT22;201;48.758;9.290;2023-04-15T09:06:24;36.30;1.00
429;DHT22;201;48.758;9.290;2023-04-15T09:08:50;37.20;1.00
429;DHT22;201;48.758;9.290;2023-04-15T09:11:16;37.00;1.00
429;DHT22;201;48.758;9.290;2023-04-15T09:13:42;36.80;1.00
429;DHT22;201;48.758;9.290;2023-04-15T09:16:08;35.70;1.00
429;DHT22;201;48.758;9.290;2023-04-15T09:18:35;34.30;1.00
429;DHT22;201;48.758;9.290;2023-04-15T09:21:19;32.10;1.00
429;DHT22;201;48.758;9.290;2023-04-15T09:23:58;30.00;1.00
429;DHT22;201;48.758;9.290;2023-04-15T09:26:36;28.50;1.00
429;DHT22;201;48.758;9.290;2023-04-15T09:29:08;26.30;1.00
429;DHT22;201;48.758;9.290;2023-04-15T09:31:35;25.50;1.00
429;DHT22;201;48.758;9.290;2023-04-15T09:34:01;25.20;1.00
429;DHT22;201;48.758;9.290;2023-04-15T09:36:27;24.40;1.00
429;DHT22;201;48.758;9.290;2023-04-15T09:38:57;24.40;1.00
429;DHT22;201;48.758;9.290;2023-04-15T09:41:24;23.90;1.00
429;DHT22;201;48.758;9.290;2023-04-15T09:43:49;24.00;1.00
429;DHT22;201;48.758;9.290;2023-04-15T09:46:15;24.50;1.00
429;DHT22;201;48.758;9.290;2023-04-15T09:48:41;24.60;1.00
429;DHT22;201;48.758;9.290;2023-04-15T09:51:06;22.20;1.00
429;DHT22;201;48.758;9.290;2023-04-15T09:53:35;21.50;1.00
429;DHT22;201;48.758;9.290;2023-04-15T09:56:02;21.20;1.00
429;DHT22;201;48.758;9.290;2023-04-15T09:58:29;20.10;1.00
429;DHT22;201;48.758;9.290;2023-04-15T10:00:56;18.50;1.00
429;DHT22;201;48.758;9.290;2023-04-15T10:03:24;17.80;1.00
429;DHT22;201;48.758;9.290;2023-04-15T10:05:52;18.20;1.00
429;DHT22;201;48.758;9.290;2023-04-15T10:08:19;18.60;1.00
429;DHT22;201;48.758;9.290;2023-04-15T10:10:46;18.50;1.00
429;DHT22;201;48.758;9.290;2023-04-15T10:13:17;18.30;1.00
429;DHT22;201;48.758;9.290;2023-04-15T10:15:44;17.80;1.00
429;DHT22;201;48.758;9.290;2023-04-15T10:18:15;17.60;1.00
429;DHT22;201;48.758;9.290;2023-04-15T10:20:43;17.40;1.00
429;DHT22;201;48.758;9.290;2023-04-15T10:23:11;17.60;1.00
429;DHT22;201;48.758;9.290;2023-04-15T10:25:36;17.90;1.00
429;DHT22;201;48.758;9.290;2023-04-15T10:28:03;19.40;1.00
429;DHT22;201;48.758;9.290;2023-04-15T10:30:31;20.40;1.00
429;DHT22;201;48.758;9.290;2023-04-15T10:32:57;22.50;1.00
429;DHT22;201;48.758;9.290;2023-04-15T10:35:23;22.80;1.00
429;DHT22;201;48.758;9.290;2023-04-15T10:37:48;21.40;1.00
429;DHT22;201;48.758;9.290;2023-04-15T10:40:28;20.30;1.00
429;DHT22;201;48.758;9.290;2023-04-15T10:42:58;19.50;1.00
429;DHT22;201;48.758;9.290;2023-04-15T10:45:30;18.70;1.00
429;DHT22;201;48.758;9.290;2023-04-15T10:47:57;17.80;1.00
429;DHT22;201;48.758;9.290;2023-04-15T10:50:25;17.60;1.00
429;DHT22;201;48.758;9.290;2023-04-15T10:52:52;18.00;1.00
429;DHT22;201;48.758;9.290;2023-04-15T10:55:22;18.30;1.00
429;DHT22;201;48.758;9.290;2023-04-15T10:57:52;18.60;1.00
429;DHT22;201;48.758;9.290;2023-04-15T11:00:19;18.30;1.00
429;DHT22;201;48.758;9.290;2023-04-15T11:03:04;18.40;1.00
429;DHT22;201;48.758;9.290;2023-04-15T11:05:51;18.40;1.00
429;DHT22;201;48.758;9.290;2023-04-15T11:08:16;18.40;1.00
429;DHT22;201;48.758;9.290;2023-04-15T11:15:43;16.30;1.00
429;DHT22;201;48.758;9.290;2023-04-15T11:18:21;16.40;1.00
429;DHT22;201;48.758;9.290;2023-04-15T11:20:55;16.20;1.00
429;DHT22;201;48.758;9.290;2023-04-15T11:23:42;15.80;1.00
429;DHT22;201;48.758;9.290;2023-04-15T11:26:11;15.70;1.00
429;DHT22;201;48.758;9.290;2023-04-15T11:28:42;15.60;1.00
429;DHT22;201;48.758;9.290;2023-04-15T11:31:13;15.90;1.00
429;DHT22;201;48.758;9.290;2023-04-15T11:33:58;16.10;1.00
429;DHT22;201;48.758;9.290;2023-04-15T11:36:27;15.80;1.00
429;DHT22;201;48.758;9.290;2023-04-15T11:38:53;16.00;1.00
429;DHT22;201;48.758;9.290;2023-04-15T11:41:22;16.00;1.00
429;DHT22;201;48.758;9.290;2023-04-15T11:43:48;16.00;1.00
429;DHT22;201;48.758;9.290;2023-04-15T11:46:14;16.00;1.00
429;DHT22;201;48.758;9.290;2023-04-15T11:48:42;15.70;1.00
429;DHT22;201;48.758;9.290;2023-04-15T11:51:11;15.70;1.00
429;DHT22;201;48.758;9.290;2023-04-15T11:53:48;15.40;1.00
429;DHT22;201;48.758;9.290;2023-04-15T11:56:22;15.00;1.00
429;DHT22;201;48.758;9.290;2023-04-15T11:58:52;14.10;1.00
429;DHT22;201;48.758;9.290;2023-04-15T12:01:17;13.20;1.00
429;DHT22;201;48.758;9.290;2023-04-15T12:03:47;12.70;1.00
429;DHT22;201;48.758;9.290;2023-04-15T12:06:23;12.20;1.00
429;DHT22;201;48.758;9.290;2023-04-15T12:09:14;11.80;1.00
429;DHT22;201;48.758;9.290;2023-04-15T12:14:30;11.40;1.00
429;DHT22;201;48.758;9.290;2023-04-15T12:16:58;11.70;1.00
429;DHT22;201;48.758;9.290;2023-04-15T12:19:29;12.20;1.00
429;DHT22;201;48.758;9.290;2023-04-15T12:21:58;12.80;1.00
429;DHT22;201;48.758;9.290;2023-04-15T12:24:25;13.10;1.00
429;DHT22;201;48.758;9.290;2023-04-15T12:26:54;12.90;1.00
429;DHT22;201;48.758;9.290;2023-04-15T12:29:25;12.60;1.00
429;DHT22;201;48.758;9.290;2023-04-15T12:32:12;12.50;1.00
429;DHT22;201;48.758;9.290;2023-04-15T12:34:40;12.30;1.00
429;DHT22;201;48.758;9.290;2023-04-15T12:37:07;11.90;1.00
429;DHT22;201;48.758;9.290;2023-04-15T12:39:38;11.50;1.00
429;DHT22;201;48.758;9.290;2023-04-15T12:42:06;10.80;1.00
429;DHT22;201;48.758;9.290;2023-04-15T12:44:32;9.90;1.00
429;DHT22;201;48.758;9.290;2023-04-15T12:46:58;9.20;1.00
429;DHT22;201;48.758;9.290;2023-04-15T12:49:25;8.90;1.00
429;DHT22;201;48.758;9.290;2023-04-15T12:51:52;8.60;1.00
429;DHT22;201;48.758;9.290;2023-04-15T12:54:19;8.40;1.00
429;DHT22;201;48.758;9.290;2023-04-15T12:56:45;8.30;1.00
429;DHT22;201;48.758;9.290;2023-04-15T12:59:12;8.10;2.00
429;DHT22;201;48.758;9.290;2023-04-15T13:01:38;7.90;1.50
429;DHT22;201;48.758;9.290;2023-04-15T13:04:04;7.90;1.70
429;DHT22;201;48.758;9.290;2023-04-15T13:06:29;8.00;2.50
429;DHT22;201;48.758;9.290;2023-04-15T13:08:58;8.20;3.50
429;DHT22;201;48.758;9.290;2023-04-15T13:11:24;8.30;2.30
429;DHT22;201;48.758;9.290;2023-04-15T13:13:49;8.40;1.00
429;DHT22;201;48.758;9.290;2023-04-15T13:16:16;8.60;1.00
429;DHT22;201;48.758;9.290;2023-04-15T13:18:42;8.70;1.00
429;DHT22;201;48.758;9.290;2023-04-15T13:21:07;8.90;1.00
429;DHT22;201;48.758;9.290;2023-04-15T13:23:35;8.90;1.00
429;DHT22;201;48.758;9.290;2023-04-15T13:26:00;9.10;1.00
429;DHT22;201;48.758;9.290;2023-04-15T13:28:26;9.20;1.00
429;DHT22;201;48.758;9.290;2023-04-15T13:30:51;9.40;1.00
429;DHT22;201;48.758;9.290;2023-04-15T13:33:17;9.60;1.00
429;DHT22;201;48.758;9.290;2023-04-15T13:35:42;9.80;1.00
429;DHT22;201;48.758;9.290;2023-04-15T13:38:08;10.10;1.00
429;DHT22;201;48.758;9.290;2023-04-15T13:40:34;10.40;1.00
429;DHT22;201;48.758;9.290;2023-04-15T13:42:59;10.70;1.00
429;DHT22;201;48.758;9.290;2023-04-15T13:45:25;11.00;1.00
429;DHT22;201;48.758;9.290;2023-04-15T13:47:51;11.20;1.00
429;DHT22;201;48.758;9.290;2023-04-15T13:50:17;11.20;1.00
429;DHT22;201;48.758;9.290;2023-04-15T13:52:42;11.40;1.00
429;DHT22;201;48.758;9.290;2023-04-15T13:55:08;11.60;1.00
429;DHT22;201;48.758;9.290;2023-04-15T13:57:34;11.60;1.00
429;DHT22;201;48.758;9.290;2023-04-15T13:59:59;11.50;1.00
429;DHT22;201;48.758;9.290;2023-04-15T14:02:25;11.60;1.00
429;DHT22;201;48.758;9.290;2023-04-15T14:04:50;11.70;1.00
429;DHT22;201;48.758;9.290;2023-04-15T14:07:16;11.40;1.00
429;DHT22;201;48.758;9.290;2023-04-15T14:09:42;11.30;1.00
429;DHT22;201;48.758;9.290;2023-04-15T14:12:08;11.20;1.00
429;DHT22;201;48.758;9.290;2023-04-15T14:14:35;11.10;1.00
429;DHT22;201;48.758;9.290;2023-04-15T14:17:02;11.10;1.00
429;DHT22;201;48.758;9.290;2023-04-15T14:19:30;11.10;1.00
429;DHT22;201;48.758;9.290;2023-04-15T14:21:55;11.20;1.00
429;DHT22;201;48.758;9.290;2023-04-15T14:24:21;11.20;1.00
429;DHT22;201;48.758;9.290;2023-04-15T14:26:46;11.30;1.00
429;DHT22;201;48.758;9.290;2023-04-15T14:29:12;11.30;1.00
429;DHT22;201;48.758;9.290;2023-04-15T14:31:38;11.40;1.00
429;DHT22;201;48.758;9.290;2023-04-15T14:34:03;11.40;1.00
429;DHT22;201;48.758;9.290;2023-04-15T14:36:29;11.30;1.00
429;DHT22;201;48.758;9.290;2023-04-15T14:38:56;11.30;1.00
429;DHT22;201;48.758;9.290;2023-04-15T14:41:22;11.20;1.00
429;DHT22;201;48.758;9.290;2023-04-15T14:43:47;11.10;1.00
429;DHT22;201;48.758;9.290;2023-04-15T14:46:13;11.10;1.00
429;DHT22;201;48.758;9.290;2023-04-15T14:48:39;11.00;1.00
429;DHT22;201;48.758;9.290;2023-04-15T14:51:05;10.90;1.00
429;DHT22;201;48.758;9.290;2023-04-15T14:53:30;10.80;1.00
429;DHT22;201;48.758;9.290;2023-04-15T14:55:56;10.80;1.00
429;DHT22;201;48.758;9.290;2023-04-15T14:58:21;10.80;1.00
429;DHT22;201;48.758;9.290;2023-04-15T15:00:47;10.80;1.00
429;DHT22;201;48.758;9.290;2023-04-15T15:03:12;10.50;1.00
429;DHT22;201;48.758;9.290;2023-04-15T15:05:43;10.50;1.00
429;DHT22;201;48.758;9.290;2023-04-15T15:08:09;10.50;1.00
429;DHT22;201;48.758;9.290;2023-04-15T15:10:36;10.50;1.00
429;DHT22;201;48.758;9.290;2023-04-15T15:13:06;10.30;1.00
429;DHT22;201;48.758;9.290;2023-04-15T15:15:33;10.40;1.00
429;DHT22;201;48.758;9.290;2023-04-15T15:17:59;10.30;1.00
429;DHT22;201;48.758;9.290;2023-04-15T15:20:24;10.20;1.00
429;DHT22;201;48.758;9.290;2023-04-15T15:22:50;10.20;1.00
429;DHT22;201;48.758;9.290;2023-04-15T15:25:16;10.00;1.00
429;DHT22;201;48.758;9.290;2023-04-15T15:27:42;9.90;1.00
429;DHT22;201;48.758;9.290;2023-04-15T15:30:08;9.80;1.00
429;DHT22;201;48.758;9.290;2023-04-15T15:32:34;9.60;1.00
429;DHT22;201;48.758;9.290;2023-04-15T15:34:59;9.50;1.00
429;DHT22;201;48.758;9.290;2023-04-15T15:37:25;9.40;1.00
429;DHT22;201;48.758;9.290;2023-04-15T15:39:51;9.30;1.00
429;DHT22;201;48.758;9.290;2023-04-15T15:42:21;9.20;1.00
429;DHT22;201;48.758;9.290;2023-04-15T15:44:48;9.20;1.00
429;DHT22;201;48.758;9.290;2023-04-15T15:47:14;9.10;1.00
429;DHT22;201;48.758;9.290;2023-04-15T15:49:40;9.00;1.00
429;DHT22;201;48.758;9.290;2023-04-15T15:52:06;8.80;1.00
429;DHT22;201;48.758;9.290;2023-04-15T15:54:31;8.70;1.00
429;DHT22;201;48.758;9.290;2023-04-15T15:56:57;8.60;1.00
429;DHT22;201;48.758;9.290;2023-04-15T15:59:23;8.60;1.00
429;DHT22;201;48.758;9.290;2023-04-15T16:01:49;8.70;1.00
429;DHT22;201;48.758;9.290;2023-04-15T16:04:15;8.70;1.00
429;DHT22;201;48.758;9.290;2023-04-15T16:06:41;8.70;1.00
429;DHT22;201;48.758;9.290;2023-04-15T16:09:08;8.80;1.00
429;DHT22;201;48.758;9.290;2023-04-15T16:11:34;8.90;1.00
429;DHT22;201;48.758;9.290;2023-04-15T16:14:00;8.90;1.00
429;DHT22;201;48.758;9.290;2023-04-15T16:16:25;8.80;1.00
429;DHT22;201;48.758;9.290;2023-04-15T16:18:51;8.60;1.00
429;DHT22;201;48.758;9.290;2023-04-15T16:21:16;8.60;1.00
429;DHT22;201;48.758;9.290;2023-04-15T16:23:42;8.50;1.00
429;DHT22;201;48.758;9.290;2023-04-15T16:26:07;8.40;1.00
429;DHT22;201;48.758;9.290;2023-04-15T16:28:33;8.30;1.00
429;DHT22;201;48.758;9.290;2023-04-15T16:30:58;8.30;1.00
429;DHT22;201;48.758;9.290;2023-04-15T16:33:24;8.30;1.00
429;DHT22;201;48.758;9.290;2023-04-15T16:35:50;8.30;1.30
429;DHT22;201;48.758;9.290;2023-04-15T16:38:15;8.20;2.30
429;DHT22;201;48.758;9.290;2023-04-15T16:40:41;8.20;3.80
429;DHT22;201;48.758;9.290;2023-04-15T16:43:06;8.10;4.20
429;DHT22;201;48.758;9.290;2023-04-15T16:45:32;8.10;5.10
429;DHT22;201;48.758;9.290;2023-04-15T16:47:58;8.10;5.60
429;DHT22;201;48.758;9.290;2023-04-15T16:50:23;8.10;4.60
429;DHT22;201;48.758;9.290;2023-04-15T16:52:49;8.10;5.00
429;DHT22;201;48.758;9.290;2023-04-15T16:55:14;8.00;5.40
429;DHT22;201;48.758;9.290;2023-04-15T16:57:40;8.00;6.50
429;DHT22;201;48.758;9.290;2023-04-15T17:00:06;8.00;7.10
429;DHT22;201;48.758;9.290;2023-04-15T17:02:31;7.90;7.70
429;DHT22;201;48.758;9.290;2023-04-15T17:04:57;7.80;8.80